Time;durP1;ratioP1;P1;durP2;ratioP2;P2;SDS_P1;SDS_P2;PMS_P1;PMS_P2;Temp;Humidity;BMP_temperature;BMP_pressure;BME280_temperature;BME280_humidity;BME280_pressure;Samples;Min_cycle;Max_cycle;Signal;HPM_P1;HPM_P2
2024/04/05 00:00:24;;;;;;;2.60;1.20;;;;;;;11.45;60.81;98761.02;103223;1298;545460;-76
2024/04/05 00:04:27;;;;;;;1.80;1.40;;;;;;;11.42;60.77;98757.87;103522;1294;544945;-75
2024/04/05 00:08:03;;;;;;;2.10;1.30;;;;;;;11.40;60.81;98753.59;103256;1295;545562;-75
2024/04/05 00:11:39;;;;;;;1.90;1.30;;;;;;;11.36;60.95;98756.27;103305;1298;544918;-76
2024/04/05 00:15:24;;;;;;;1.50;1.20;;;;;;;11.33;61.18;98755.25;103408;1293;545499;-76
2024/04/05 00:19:00;;;;;;;1.40;1.00;;;;;;;11.29;61.19;98757.73;103410;1295;545014;-76
2024/04/05 00:22:42;;;;;;;1.90;1.30;;;;;;;11.26;61.23;98763.23;103030;1296;545050;-75
2024/04/05 00:26:17;;;;;;;1.50;1.30;;;;;;;11.24;61.13;98765.16;103037;1295;545085;-75
2024/04/05 00:30:03;;;;;;;1.70;1.20;;;;;;;11.22;61.28;98768.63;103056;1295;544939;-78
2024/04/05 00:33:37;;;;;;;2.10;1.30;;;;;;;11.19;61.38;98773.40;103177;1292;544956;-76
2024/04/05 00:37:14;;;;;;;1.30;1.00;;;;;;;11.14;61.31;98779.67;103155;1298;545109;-78
2024/04/05 00:40:55;;;;;;;2.80;1.40;;;;;;;11.09;61.46;98788.91;102977;1295;545040;-77
2024/04/05 00:44:33;;;;;;;2.10;1.60;;;;;;;11.04;61.52;98800.48;103257;1299;544967;-76
2024/04/05 00:48:19;;;;;;;1.80;1.50;;;;;;;10.99;61.59;98809.42;103117;1294;549441;-75
2024/04/05 00:51:46;;;;;;;3.40;2.80;;;;;;;10.94;61.68;98815.73;104143;1298;545434;-76
2024/04/05 00:55:36;;;;;;;2.90;1.60;;;;;;;10.90;61.81;98824.77;104570;1291;545414;-77
2024/04/05 00:59:10;;;;;;;3.00;1.40;;;;;;;10.87;61.91;98833.08;104461;1292;545053;-76
2024/04/05 01:02:45;;;;;;;3.80;1.50;;;;;;;10.80;62.01;98835.54;104216;1293;545567;-75
2024/04/05 01:06:20;;;;;;;3.40;1.40;;;;;;;10.74;62.24;98836.27;104059;1296;544975;-76
2024/04/05 01:10:05;;;;;;;3.30;1.60;;;;;;;10.72;62.13;98844.27;104318;1300;545732;-75
2024/04/05 01:13:40;;;;;;;3.70;1.80;;;;;;;10.70;62.43;98847.61;104090;1298;545017;-77
2024/04/05 01:17:23;;;;;;;3.80;1.90;;;;;;;10.67;62.49;98851.13;104348;1294;545563;-76
2024/04/05 01:21:02;;;;;;;5.50;3.00;;;;;;;10.63;62.62;98851.34;103745;1298;545059;-77
2024/04/05 01:24:39;;;;;;;9.70;7.70;;;;;;;10.59;62.76;98852.48;103157;1294;545626;-78
2024/04/05 01:28:16;;;;;;;9.70;6.70;;;;;;;10.55;62.73;98854.29;103940;1292;545000;-77
2024/04/05 01:31:53;;;;;;;11.60;7.90;;;;;;;10.53;62.84;98857.91;103404;1292;545560;-77
2024/04/05 01:35:31;;;;;;;14.30;9.80;;;;;;;10.51;62.89;98852.54;103800;1294;544950;-78
2024/04/05 01:39:09;;;;;;;10.60;6.90;;;;;;;10.50;62.91;98845.40;103656;1293;545058;-76
2024/04/05 01:42:47;;;;;;;15.80;8.90;;;;;;;10.48;63.12;98841.45;103530;1292;545055;-80
2024/04/05 01:46:24;;;;;;;16.90;8.80;;;;;;;10.45;63.10;98840.76;103422;1296;544896;-76
2024/04/05 01:50:03;;;;;;;11.50;5.80;;;;;;;10.44;63.22;98840.48;103146;1295;545108;-75
2024/04/05 01:53:40;;;;;;;3.00;2.50;;;;;;;10.41;63.27;98843.80;103131;1292;545091;-76
2024/04/05 01:57:18;;;;;;;5.70;2.50;;;;;;;10.38;63.29;98841.16;103425;1295;545111;-78
2024/04/05 02:01:01;;;;;;;3.60;2.20;;;;;;;10.34;63.67;98839.66;103398;1299;544819;-76
2024/04/05 02:04:44;;;;;;;7.50;3.10;;;;;;;10.28;63.92;98838.77;103308;1294;544928;-77
2024/04/05 02:08:18;;;;;;;7.30;3.20;;;;;;;10.21;64.02;98838.27;103339;1294;545193;-77
2024/04/05 02:12:01;;;;;;;5.40;2.70;;;;;;;10.17;63.97;98840.29;103784;1289;545035;-79
2024/04/05 02:15:46;;;;;;;3.40;3.10;;;;;;;10.13;64.15;98841.69;104206;1286;544956;-78
2024/04/05 02:19:20;;;;;;;3.10;2.80;;;;;;;10.09;64.23;98842.98;103952;1294;545456;-77
2024/04/05 02:22:58;;;;;;;5.80;4.00;;;;;;;10.03;64.37;98842.42;103151;1292;545337;-77
2024/04/05 02:26:36;;;;;;;8.00;5.60;;;;;;;9.97;64.43;98847.85;102976;1299;545275;-75
2024/04/05 02:30:11;;;;;;;6.30;5.30;;;;;;;9.93;64.45;98851.45;103488;1292;546046;-77
2024/04/05 02:33:53;;;;;;;8.60;4.60;;;;;;;9.88;64.50;98853.07;103243;1298;545034;-77
2024/04/05 02:37:31;;;;;;;4.90;3.60;;;;;;;9.84;64.70;98855.08;103308;1293;545651;-76
2024/04/05 02:41:08;;;;;;;6.60;3.90;;;;;;;9.80;64.79;98859.64;103482;1292;545620;-77
2024/04/05 02:44:46;;;;;;;4.10;3.50;;;;;;;9.78;64.84;98859.44;103519;1292;545760;-79
2024/04/05 02:48:27;;;;;;;11.70;7.20;;;;;;;9.73;64.98;98856.70;103255;1295;547992;-77
2024/04/05 02:52:02;;;;;;;14.50;11.00;;;;;;;9.71;65.09;98864.55;103415;1293;545051;-76
2024/04/05 02:55:39;;;;;;;7.80;4.50;;;;;;;9.68;65.24;98855.91;103665;1292;544991;-76
2024/04/05 02:59:18;;;;;;;4.60;3.80;;;;;;;9.68;65.43;98856.45;103379;1295;545042;-78
2024/04/05 03:02:55;;;;;;;6.10;3.30;;;;;;;9.67;65.42;98860.35;103881;1293;544928;-77
2024/04/05 03:06:33;;;;;;;6.00;3.50;;;;;;;9.68;65.49;98863.10;103664;1307;545986;-76
2024/04/05 03:10:10;;;;;;;8.00;3.60;;;;;;;9.69;65.69;98873.23;103563;1293;545531;-77
2024/04/05 03:13:48;;;;;;;7.00;3.80;;;;;;;9.69;65.68;98878.31;103435;1294;545014;-75
2024/04/05 03:17:25;;;;;;;6.60;3.90;;;;;;;9.69;65.79;98880.83;103319;1296;544913;-76
2024/04/05 03:21:04;;;;;;;4.70;3.50;;;;;;;9.68;65.93;98881.75;103431;1293;545050;-77
2024/04/05 03:24:41;;;;;;;6.80;3.30;;;;;;;9.67;66.00;98877.38;103531;1292;545004;-78
2024/04/05 03:28:19;;;;;;;5.50;3.60;;;;;;;9.66;66.14;98889.03;103436;1294;545968;-80
2024/04/05 03:31:58;;;;;;;4.80;3.90;;;;;;;9.65;66.20;98901.55;103468;1293;545546;-77
2024/04/05 03:35:37;;;;;;;6.60;4.40;;;;;;;9.64;66.35;98911.99;103809;1289;544946;-77
2024/04/05 03:39:14;;;;;;;6.60;4.00;;;;;;;9.63;66.59;98910.79;103033;1296;546006;-77
2024/04/05 03:42:48;;;;;;;5.10;3.50;;;;;;;9.64;66.77;98908.63;103140;1295;545035;-77
2024/04/05 03:46:32;;;;;;;4.50;3.00;;;;;;;9.65;66.84;98907.38;103475;1295;545040;-75
2024/04/05 03:50:06;;;;;;;4.20;3.00;;;;;;;9.66;67.10;98908.85;103468;1292;545044;-76
2024/04/05 03:53:48;;;;;;;3.30;2.70;;;;;;;9.68;67.18;98909.64;103160;1292;545060;-74
2024/04/05 03:57:26;;;;;;;5.20;3.60;;;;;;;9.72;67.35;98908.59;103155;1294;545449;-77
2024/04/05 04:01:03;;;;;;;3.80;2.80;;;;;;;9.76;67.32;98909.21;103014;1295;544975;-76
2024/04/05 04:04:43;;;;;;;5.40;3.20;;;;;;;9.81;67.37;98909.84;103088;1301;545107;-76
2024/04/05 04:08:20;;;;;;;9.70;3.60;;;;;;;9.86;67.41;98916.59;103841;1292;546215;-77
2024/04/05 04:11:55;;;;;;;15.20;3.60;;;;;;;9.92;67.58;98921.90;103147;1302;546118;-77
2024/04/05 04:15:39;;;;;;;7.90;4.30;;;;;;;9.96;67.58;98924.11;103106;1306;544951;-78
2024/04/05 04:19:13;;;;;;;5.60;4.20;;;;;;;10.01;67.68;98931.23;103518;1296;545979;-77
2024/04/05 04:22:55;;;;;;;8.40;3.60;;;;;;;10.07;67.79;98928.33;103045;1304;545617;-75
2024/04/05 04:26:32;;;;;;;5.50;3.70;;;;;;;10.14;67.85;98933.71;103288;1296;545027;-81
2024/04/05 04:30:12;;;;;;;5.50;3.20;;;;;;;10.25;68.06;98934.38;104432;1292;544786;-78
2024/04/05 04:44:14;;;;;;;5.20;2.10;;;;;;;10.80;67.99;98937.76;104259;1283;554232;-74
2024/04/05 04:47:04;;;;;;;3.60;2.00;;;;;;;11.17;67.81;98942.64;102999;1292;545469;-74
2024/04/05 04:50:41;;;;;;;4.60;2.30;;;;;;;11.26;67.84;98943.83;103805;1294;544904;-74
2024/04/05 04:54:20;;;;;;;3.90;2.40;;;;;;;11.35;67.89;98948.98;103655;1295;544995;-75
2024/04/05 04:58:35;;;;;;;5.10;2.80;;;;;;;11.45;67.73;98956.27;105127;1285;549403;-76
2024/04/05 05:01:40;;;;;;;7.80;2.70;;;;;;;11.51;67.84;98960.85;104001;1286;545293;-75
2024/04/05 05:05:24;;;;;;;5.50;2.40;;;;;;;11.58;67.71;98960.30;103265;1295;545069;-76
2024/04/05 05:09:00;;;;;;;5.90;2.60;;;;;;;11.66;67.68;98964.59;103086;1301;544911;-77
2024/04/05 05:12:45;;;;;;;3.90;3.00;;;;;;;11.70;67.64;98969.41;103700;1293;544832;-77
2024/04/05 05:16:19;;;;;;;4.80;3.00;;;;;;;11.76;67.64;98976.64;103297;1295;545893;-75
2024/04/05 05:20:01;;;;;;;4.00;2.60;;;;;;;11.79;67.95;98969.23;103321;1293;545903;-75
2024/04/05 05:34:13;;;;;;;6.90;3.10;;;;;;;12.78;69.15;98983.63;106259;1285;554029;-86
2024/04/05 06:29:07;;;;;;;15.10;3.10;;;;;;;17.88;64.35;99009.19;104853;1289;556393;-80
2024/04/05 06:31:57;;;;;;;5.00;2.00;;;;;;;18.43;63.59;99013.52;104378;1295;545677;-82
2024/04/05 06:35:57;;;;;;;10.30;2.40;;;;;;;18.50;63.00;99014.02;104139;1295;545044;-81
2024/04/05 06:39:10;;;;;;;6.90;2.30;;;;;;;18.61;62.52;99012.31;104689;1295;545032;-83
2024/04/05 06:42:53;;;;;;;6.80;1.90;;;;;;;18.76;62.20;99017.20;104910;1294;545481;-86
2024/04/05 06:46:29;;;;;;;3.90;1.60;;;;;;;18.98;61.74;99019.69;104463;1285;544921;-78
2024/04/05 06:50:09;;;;;;;4.00;2.00;;;;;;;19.15;61.23;99023.52;103362;1298;545481;-78
2024/04/05 06:53:45;;;;;;;6.00;2.20;;;;;;;19.27;61.01;99024.75;103563;1295;545055;-79
2024/04/05 06:57:21;;;;;;;4.40;2.00;;;;;;;19.39;60.65;99025.45;103698;1293;545873;-78
2024/04/05 07:01:04;;;;;;;6.50;2.00;;;;;;;19.47;60.17;99026.55;103703;1298;545529;-78
2024/04/05 07:04:43;;;;;;;4.40;2.60;;;;;;;19.14;59.37;99030.90;103593;1295;545093;-78
2024/04/05 07:08:23;;;;;;;4.90;2.40;;;;;;;18.74;59.23;99034.37;103512;1296;545677;-78
2024/04/05 07:12:07;;;;;;;5.70;2.50;;;;;;;18.52;59.21;99048.60;103460;1295;545083;-78
2024/04/05 07:15:49;;;;;;;4.70;2.20;;;;;;;18.40;59.05;99056.05;103550;1296;545076;-78
2024/04/05 07:19:25;;;;;;;6.60;2.20;;;;;;;18.39;58.88;99058.95;103400;1298;546008;-79
2024/04/05 07:23:07;;;;;;;8.00;1.80;;;;;;;18.38;58.67;99057.81;103456;1292;544993;-78
2024/04/05 07:26:45;;;;;;;4.90;2.00;;;;;;;18.32;58.41;99059.95;103378;1295;545564;-78
2024/04/05 07:30:22;;;;;;;28.70;3.30;;;;;;;18.27;58.34;99063.38;103913;1289;545652;-79
2024/04/05 07:34:00;;;;;;;4.40;1.90;;;;;;;18.27;58.29;99072.62;103681;1291;545273;-78
2024/04/05 07:37:36;;;;;;;4.90;1.90;;;;;;;18.39;58.15;99072.52;103494;1296;545085;-77
2024/04/05 07:41:18;;;;;;;7.20;2.30;;;;;;;18.45;57.95;99071.08;103422;1292;545012;-78
2024/04/05 07:44:57;;;;;;;4.50;1.80;;;;;;;18.51;57.79;99074.30;103794;1291;545559;-79
2024/04/05 07:48:33;;;;;;;6.00;1.70;;;;;;;18.48;57.54;99077.91;103543;1293;546088;-79
2024/04/05 07:52:09;;;;;;;9.20;3.80;;;;;;;18.39;57.32;99084.79;103284;1298;544977;-79
2024/04/05 07:55:51;;;;;;;28.80;4.70;;;;;;;18.44;57.48;99087.05;103463;1292;545800;-78
2024/04/05 07:59:29;;;;;;;5.70;2.40;;;;;;;18.45;57.40;99088.67;103985;1308;545573;-85
2024/04/05 08:03:06;;;;;;;7.40;2.10;;;;;;;18.41;57.20;99091.16;105718;1292;544893;-85
2024/04/05 08:06:42;;;;;;;8.40;2.00;;;;;;;18.47;57.25;99092.95;105764;1292;545963;-86
2024/04/05 08:10:23;;;;;;;48.10;7.10;;;;;;;18.66;57.28;99089.69;105564;1294;544959;-86
2024/04/05 08:14:01;;;;;;;25.40;4.00;;;;;;;18.93;57.16;99077.58;105256;1295;545639;-86
2024/04/05 08:17:39;;;;;;;6.20;2.00;;;;;;;19.09;56.51;99071.64;105193;1295;545055;-85
2024/04/05 08:21:14;;;;;;;3.00;1.60;;;;;;;19.26;56.33;99071.44;104804;1298;545497;-86
2024/04/05 08:24:57;;;;;;;5.50;2.00;;;;;;;19.42;55.73;99064.84;104949;1295;545039;-85
2024/04/05 08:28:39;;;;;;;6.50;2.30;;;;;;;19.57;55.43;99067.14;104838;1295;545064;-86
2024/04/05 08:32:14;;;;;;;4.20;2.00;;;;;;;19.74;55.16;99066.61;105476;1292;544786;-86
2024/04/05 08:35:56;;;;;;;9.60;2.30;;;;;;;19.85;54.95;99069.70;105094;1296;545109;-87
2024/04/05 08:39:32;;;;;;;3.90;1.70;;;;;;;20.07;54.56;99072.15;105800;1289;544768;-86
2024/04/05 08:43:17;;;;;;;7.50;1.80;;;;;;;20.19;53.97;99070.37;105337;1289;545044;-85
2024/04/05 08:46:54;;;;;;;4.80;1.60;;;;;;;20.31;53.67;99072.77;104985;1294;545267;-85
2024/04/05 08:50:30;;;;;;;6.40;2.20;;;;;;;20.15;52.98;99068.59;105407;1291;545022;-87
2024/04/05 08:54:07;;;;;;;9.80;2.30;;;;;;;20.07;52.62;99067.23;104996;1293;546177;-86
2024/04/05 08:57:44;;;;;;;5.90;2.10;;;;;;;20.20;52.72;99071.89;105106;1297;545001;-85
2024/04/05 09:01:26;;;;;;;6.30;2.20;;;;;;;20.37;52.29;99071.02;105064;1296;545448;-86
2024/04/05 09:05:06;;;;;;;6.70;2.30;;;;;;;20.47;52.06;99069.88;105188;1295;544993;-86
2024/04/05 09:08:51;;;;;;;14.40;2.50;;;;;;;20.51;51.81;99067.49;105233;1294;544850;-85
2024/04/05 09:12:27;;;;;;;14.10;2.70;;;;;;;20.50;51.22;99057.07;105071;1295;546061;-85
2024/04/05 09:16:04;;;;;;;7.90;2.20;;;;;;;20.10;51.19;99060.64;105470;1292;545590;-86
2024/04/05 09:19:41;;;;;;;12.00;2.60;;;;;;;20.16;50.74;99056.02;105382;1294;544927;-85
2024/04/05 09:23:27;;;;;;;19.30;3.80;;;;;;;19.83;50.36;99056.67;105370;1296;544709;-84
2024/04/05 09:27:06;;;;;;;17.50;2.50;;;;;;;19.65;50.50;99058.70;105602;1288;544817;-85
2024/04/05 09:30:39;;;;;;;8.80;2.30;;;;;;;19.55;50.26;99058.25;104954;1293;545058;-84
2024/04/05 09:34:25;;;;;;;7.80;1.90;;;;;;;19.36;50.46;99052.35;106397;1286;544935;-84
2024/04/05 09:37:55;;;;;;;6.10;2.10;;;;;;;19.51;50.49;99047.80;105848;1293;545055;-84
2024/04/05 09:41:35;;;;;;;8.50;2.30;;;;;;;19.75;50.25;99047.58;105182;1289;544763;-84
2024/04/05 09:45:12;;;;;;;20.50;3.30;;;;;;;20.11;50.09;99045.41;104925;1295;545455;-86
2024/04/05 09:48:47;;;;;;;8.10;1.70;;;;;;;20.40;49.71;99044.27;105043;1293;545046;-85
2024/04/05 09:52:35;;;;;;;14.70;7.60;;;;;;;20.44;49.55;99048.15;104755;1292;544902;-85
2024/04/05 09:56:06;;;;;;;9.20;6.30;;;;;;;20.48;49.64;99052.21;104959;1293;545631;-86
2024/04/05 09:59:46;;;;;;;9.90;3.80;;;;;;;20.61;49.54;99053.48;104919;1296;545658;-84
2024/04/05 10:03:18;;;;;;;6.80;2.40;;;;;;;20.79;49.16;99044.30;105157;1293;545027;-85
2024/04/05 10:07:10;;;;;;;7.10;5.30;;;;;;;21.07;49.00;99045.45;105345;1293;549638;-87
2024/04/05 10:10:34;;;;;;;7.90;2.70;;;;;;;21.46;48.83;99052.63;105010;1297;545027;-85
2024/04/05 10:14:22;;;;;;;6.20;2.10;;;;;;;21.84;48.48;99053.13;105083;1295;545017;-85
2024/04/05 10:17:55;;;;;;;8.90;2.60;;;;;;;21.93;48.26;99057.61;104568;1295;545013;-83
2024/04/05 10:21:32;;;;;;;16.20;6.00;;;;;;;22.02;48.11;99066.19;104490;1296;545084;-85
2024/04/05 10:25:13;;;;;;;9.70;4.70;;;;;;;21.97;47.77;99065.05;105051;1292;545166;-86
2024/04/05 10:29:00;;;;;;;7.40;2.20;;;;;;;21.92;47.61;99064.17;105009;1295;545518;-84
2024/04/05 10:32:58;;;;;;;10.60;2.00;;;;;;;21.87;47.15;99065.78;103410;1299;552145;-79
2024/04/05 10:36:07;;;;;;;20.80;2.90;;;;;;;21.80;47.11;99063.28;103983;1289;544789;-78
2024/04/05 10:40:13;;;;;;;5.70;1.30;;;;;;;21.68;46.92;99061.20;103453;1296;550366;-78
2024/04/05 10:43:24;;;;;;;7.00;1.50;;;;;;;21.71;47.13;99071.62;103340;1292;545021;-78
2024/04/05 10:47:00;;;;;;;4.90;1.20;;;;;;;21.89;46.77;99069.82;103430;1293;545494;-79
2024/04/05 10:50:39;;;;;;;10.70;1.80;;;;;;;21.82;46.56;99070.22;103414;1298;545939;-79
2024/04/05 10:54:16;;;;;;;7.50;1.70;;;;;;;21.80;46.42;99063.28;103451;1296;545898;-79
2024/04/05 10:57:56;;;;;;;6.00;1.40;;;;;;;21.69;46.16;99064.73;103629;1292;545107;-78
2024/04/05 11:01:32;;;;;;;5.30;1.60;;;;;;;21.74;46.16;99060.85;103758;1294;544987;-79
2024/04/05 11:05:14;;;;;;;9.50;2.20;;;;;;;21.91;46.17;99060.98;103349;1296;545827;-79
2024/04/05 11:08:51;;;;;;;9.10;1.90;;;;;;;22.10;45.72;99057.98;103375;1293;545166;-80
2024/04/05 11:12:22;;;;;;;6.60;1.70;;;;;;;22.09;45.46;99055.10;103234;1295;545597;-79
2024/04/05 11:16:04;;;;;;;9.10;1.60;;;;;;;22.08;45.47;99050.52;103514;1295;546249;-80
2024/04/05 11:19:40;;;;;;;5.80;1.80;;;;;;;22.26;45.05;99052.05;103514;1293;545953;-79
2024/04/05 11:23:21;;;;;;;5.20;1.60;;;;;;;22.43;44.87;99044.77;103462;1296;545531;-78
2024/04/05 11:27:06;;;;;;;7.70;1.70;;;;;;;22.54;44.70;99052.23;103323;1295;544734;-78
2024/04/05 11:30:57;;;;;;;6.30;2.00;;;;;;;22.67;45.01;99049.12;103625;1295;546927;-77
2024/04/05 11:34:18;;;;;;;7.50;2.00;;;;;;;22.79;45.31;99052.52;103520;1295;544863;-79
2024/04/05 11:37:58;;;;;;;7.60;2.10;;;;;;;22.78;45.19;99052.61;103576;1296;545331;-78
2024/04/05 11:41:39;;;;;;;9.70;3.50;;;;;;;22.59;45.16;99057.42;103328;1295;545064;-80
2024/04/05 11:45:18;;;;;;;7.80;2.50;;;;;;;22.49;45.44;99046.61;103614;1295;544979;-78
2024/04/05 11:48:53;;;;;;;5.40;2.30;;;;;;;22.66;45.45;99041.33;104384;1295;545016;-79
2024/04/05 11:52:35;;;;;;;10.40;5.50;;;;;;;22.78;45.30;99040.19;103888;1295;545113;-78
2024/04/05 11:56:30;;;;;;;5.70;2.60;;;;;;;22.86;44.86;99032.85;103496;1292;545622;-78
2024/04/05 11:59:53;;;;;;;8.60;2.10;;;;;;;22.76;44.99;99025.69;103524;1294;545075;-78
2024/04/05 12:03:36;;;;;;;8.30;3.10;;;;;;;22.90;44.98;99024.55;103619;1295;545902;-78
2024/04/05 12:18:14;;;;;;;5.20;1.60;;;;;;;23.04;44.63;99014.90;106702;1269;554217;-78
2024/04/05 12:21:03;;;;;;;4.70;1.60;;;;;;;22.83;44.56;99010.42;103644;1293;545026;-80
2024/04/05 12:35:25;;;;;;;7.50;1.60;;;;;;;23.08;44.63;99003.44;107126;1273;554082;-80
2024/04/05 12:38:16;;;;;;;4.50;1.50;;;;;;;23.23;44.80;99000.13;103508;1294;545570;-79
2024/04/05 12:52:19;;;;;;;5.50;1.60;;;;;;;23.46;44.51;98981.09;104388;1288;553989;-79
2024/04/05 12:55:09;;;;;;;5.70;1.80;;;;;;;23.36;44.28;98977.15;103693;1293;546016;-79
2024/04/05 12:58:52;;;;;;;7.10;1.70;;;;;;;23.28;44.46;98975.65;103554;1292;545563;-79
2024/04/05 13:02:29;;;;;;;5.30;1.70;;;;;;;23.45;44.21;98971.27;103431;1293;544988;-80
2024/04/05 13:06:11;;;;;;;6.80;1.70;;;;;;;23.50;43.90;98965.39;103446;1292;545782;-79
2024/04/05 13:10:03;;;;;;;10.30;2.70;;;;;;;23.57;43.93;98970.35;103499;1293;550726;-79
2024/04/05 13:13:19;;;;;;;4.40;1.70;;;;;;;23.68;43.97;98961.04;103352;1294;544987;-78
2024/04/05 13:17:00;;;;;;;3.70;1.40;;;;;;;23.59;43.77;98948.94;103506;1295;545019;-79
2024/04/05 13:20:48;;;;;;;8.80;2.20;;;;;;;23.35;43.51;98955.00;103447;1295;550132;-79
2024/04/05 13:24:17;;;;;;;7.30;1.80;;;;;;;23.35;43.77;98947.23;103581;1297;545536;-81
2024/04/05 13:27:57;;;;;;;6.50;1.80;;;;;;;23.43;43.67;98937.10;103421;1294;545579;-79
2024/04/05 13:42:06;;;;;;;5.90;2.00;;;;;;;23.85;43.48;98921.05;104275;1290;554834;-77
2024/04/05 13:44:56;;;;;;;5.20;1.50;;;;;;;23.94;43.10;98906.77;103728;1289;546309;-78
2024/04/05 13:48:42;;;;;;;5.50;1.70;;;;;;;23.89;43.09;98898.56;103509;1296;549219;-78
2024/04/05 13:52:11;;;;;;;9.00;1.80;;;;;;;23.84;43.06;98901.30;103683;1295;545415;-77
2024/04/05 13:55:47;;;;;;;4.20;1.20;;;;;;;23.72;42.92;98905.36;103587;1294;545264;-77
2024/04/05 13:59:27;;;;;;;9.90;1.70;;;;;;;23.66;42.93;98908.98;103713;1296;545436;-80
2024/04/05 14:03:07;;;;;;;4.40;1.40;;;;;;;23.70;43.03;98904.50;103545;1294;545052;-79
2024/04/05 14:07:11;;;;;;;4.00;1.30;;;;;;;23.77;42.82;98898.27;103684;1298;549276;-78
2024/04/05 14:10:27;;;;;;;7.00;1.40;;;;;;;23.72;42.83;98894.16;103691;1292;545054;-79
2024/04/05 14:14:05;;;;;;;3.80;1.50;;;;;;;23.60;42.69;98887.46;103439;1295;545939;-79
2024/04/05 14:17:42;;;;;;;3.80;1.50;;;;;;;23.40;42.67;98881.55;103635;1294;545125;-77
2024/04/05 14:21:22;;;;;;;3.70;1.40;;;;;;;23.25;42.65;98889.90;103573;1294;546118;-80
2024/04/05 14:24:56;;;;;;;9.30;1.70;;;;;;;23.21;42.91;98891.71;103777;1293;545991;-79
2024/04/05 14:28:35;;;;;;;5.30;1.40;;;;;;;23.15;42.89;98896.67;103889;1292;545592;-79
2024/04/05 14:32:18;;;;;;;8.90;1.80;;;;;;;23.06;42.95;98898.14;103752;1292;545923;-79
2024/04/05 14:35:57;;;;;;;4.20;1.20;;;;;;;22.93;42.79;98887.92;103606;1295;545036;-79
2024/04/05 14:39:32;;;;;;;5.00;1.40;;;;;;;22.74;42.93;98882.64;104601;1292;544972;-78
2024/04/05 14:43:08;;;;;;;5.80;1.70;;;;;;;22.67;43.21;98885.34;104931;1292;545471;-78
2024/04/05 14:46:48;;;;;;;4.00;1.40;;;;;;;22.61;43.28;98878.71;104294;1295;545209;-79
2024/04/05 14:50:37;;;;;;;3.70;1.40;;;;;;;22.43;43.16;98873.52;103760;1295;548334;-79
2024/04/05 14:54:18;;;;;;;3.40;1.40;;;;;;;22.34;43.45;98866.65;103523;1292;549909;-77
2024/04/05 14:57:55;;;;;;;4.90;1.40;;;;;;;22.19;43.58;98854.44;103365;1295;549398;-79
2024/04/05 15:01:25;;;;;;;4.70;1.30;;;;;;;22.04;43.44;98851.81;103526;1294;545522;-81
2024/04/05 15:05:00;;;;;;;3.10;1.00;;;;;;;21.90;43.38;98844.27;103503;1296;545409;-79
2024/04/05 15:08:41;;;;;;;3.90;1.10;;;;;;;21.88;43.65;98841.84;103414;1294;545005;-79
2024/04/05 15:12:26;;;;;;;5.20;1.50;;;;;;;21.75;43.71;98836.56;103767;1293;545034;-80
2024/04/05 15:16:04;;;;;;;7.90;1.90;;;;;;;21.61;43.99;98831.77;103395;1293;545137;-79
2024/04/05 15:19:42;;;;;;;5.00;1.50;;;;;;;21.49;44.18;98834.58;103446;1293;544812;-80
2024/04/05 15:23:20;;;;;;;4.90;2.50;;;;;;;21.53;44.41;98829.54;103425;1299;545193;-78
2024/04/05 15:26:57;;;;;;;7.70;2.80;;;;;;;21.61;44.45;98829.73;103426;1294;545167;-79
2024/04/05 15:30:34;;;;;;;4.90;2.00;;;;;;;21.71;44.50;98831.98;103999;1294;544978;-79
2024/04/05 15:34:10;;;;;;;11.40;2.70;;;;;;;21.79;44.62;98830.55;103605;1292;544943;-79
2024/04/05 15:38:13;;;;;;;4.80;2.30;;;;;;;21.81;44.63;98829.54;104126;1289;551926;-79
2024/04/05 15:41:36;;;;;;;5.90;2.50;;;;;;;21.77;44.53;98829.03;104771;1295;547604;-81
2024/04/05 15:45:11;;;;;;;5.90;2.00;;;;;;;21.71;44.73;98825.70;104692;1294;547551;-80
2024/04/05 15:49:05;;;;;;;4.20;1.30;;;;;;;21.59;44.77;98819.64;104400;1300;550437;-83
2024/04/05 15:52:24;;;;;;;7.40;1.60;;;;;;;21.41;44.87;98821.06;104942;1292;544911;-83
2024/04/05 16:06:28;;;;;;;2.90;2.00;;;;;;;21.39;45.16;98823.45;104210;1290;554098;-79
2024/04/05 16:09:18;;;;;;;4.30;1.70;;;;;;;21.24;45.32;98836.59;103730;1295;544934;-79
2024/04/05 16:12:56;;;;;;;3.20;1.80;;;;;;;21.01;45.42;98841.14;103780;1289;545251;-77
2024/04/05 16:16:34;;;;;;;7.90;2.60;;;;;;;20.77;45.51;98834.23;103785;1295;545643;-79
2024/04/05 17:12:26;;;;;;;3.20;2.00;;;;;;;19.49;47.10;98789.92;108403;1268;554274;-87
2024/04/05 17:15:13;;;;;;;6.60;2.10;;;;;;;19.32;47.36;98797.66;105297;1293;544722;-87
2024/04/05 17:18:59;;;;;;;6.40;2.30;;;;;;;19.16;47.49;98793.66;105630;1293;545735;-86
2024/04/05 17:22:42;;;;;;;5.10;2.10;;;;;;;18.98;47.73;98794.94;105435;1295;547959;-86
2024/04/05 17:26:14;;;;;;;6.10;3.00;;;;;;;18.79;47.95;98775.35;104404;1294;546265;-83
2024/04/05 17:29:44;;;;;;;5.90;2.90;;;;;;;18.65;48.13;98793.73;104946;1292;545347;-83
2024/04/05 17:33:33;;;;;;;7.00;2.70;;;;;;;18.53;48.26;98798.00;104396;1293;548315;-81
2024/04/05 17:36:59;;;;;;;6.50;2.30;;;;;;;18.45;48.58;98808.25;103442;1295;545130;-78
2024/04/05 17:40:36;;;;;;;6.10;2.10;;;;;;;18.37;48.78;98810.16;103649;1293;545065;-78
2024/04/05 17:44:12;;;;;;;9.50;2.70;;;;;;;18.32;48.93;98805.00;104326;1294;544970;-85
2024/04/05 17:47:54;;;;;;;5.80;1.90;;;;;;;18.25;49.06;98789.71;104497;1295;545410;-84
2024/04/05 17:51:31;;;;;;;3.90;1.50;;;;;;;18.18;49.36;98782.88;104563;1289;544962;-80
2024/04/05 17:55:12;;;;;;;3.00;1.70;;;;;;;18.08;49.48;98770.26;103793;1294;544981;-80
2024/04/05 17:58:50;;;;;;;4.80;1.60;;;;;;;18.01;49.74;98756.10;103754;1294;545001;-80
2024/04/05 18:02:49;;;;;;;5.20;2.40;;;;;;;17.96;49.92;98772.73;104337;1308;550063;-81
2024/04/05 18:06:05;;;;;;;3.00;1.60;;;;;;;17.91;50.02;98767.42;105098;1292;545669;-82
2024/04/05 18:09:44;;;;;;;6.40;2.00;;;;;;;17.86;50.28;98769.20;104730;1289;545818;-81
2024/04/05 18:13:34;;;;;;;5.60;2.20;;;;;;;17.81;50.31;98758.09;104970;1298;545197;-81
2024/04/05 18:27:30;;;;;;;2.80;1.30;;;;;;;17.96;50.68;98757.50;104996;1288;553994;-79
2024/04/05 18:30:18;;;;;;;5.10;1.80;;;;;;;18.01;50.77;98764.13;103855;1296;545149;-80
2024/04/05 18:34:01;;;;;;;4.90;1.90;;;;;;;17.95;50.98;98768.41;103931;1292;545414;-82
2024/04/05 18:37:38;;;;;;;5.20;1.70;;;;;;;17.88;51.08;98768.83;104067;1298;545613;-81
2024/04/05 18:41:15;;;;;;;4.70;1.90;;;;;;;17.82;51.23;98764.39;104312;1308;545056;-83
2024/04/05 18:55:35;;;;;;;4.60;1.90;;;;;;;17.95;51.17;98751.66;105481;1285;555231;-82
2024/04/05 18:58:23;;;;;;;7.70;2.10;;;;;;;18.00;51.41;98747.33;104417;1292;544986;-82
2024/04/05 19:02:01;;;;;;;2.80;1.50;;;;;;;17.95;51.49;98741.16;103897;1298;545700;-81
2024/04/05 19:05:31;;;;;;;3.60;1.40;;;;;;;17.90;51.74;98737.00;103969;1296;545882;-83
2024/04/05 19:09:12;;;;;;;4.40;2.10;;;;;;;17.85;51.82;98739.08;104047;1295;545099;-81
2024/04/05 19:12:50;;;;;;;4.70;2.30;;;;;;;17.80;51.95;98729.95;103669;1291;545108;-79
2024/04/05 19:16:32;;;;;;;3.40;1.80;;;;;;;17.73;51.99;98718.59;103838;1295;545503;-79
2024/04/05 19:20:16;;;;;;;3.90;2.00;;;;;;;17.68;52.13;98720.52;103536;1293;545975;-79
2024/04/05 19:23:49;;;;;;;6.60;2.30;;;;;;;17.63;52.10;98722.91;103821;1296;544959;-80
2024/04/05 19:27:28;;;;;;;5.00;1.90;;;;;;;17.58;52.30;98714.40;104121;1293;544782;-80
2024/04/05 19:30:59;;;;;;;4.40;1.60;;;;;;;17.55;52.39;98714.20;104801;1289;544957;-80
2024/04/05 19:34:37;;;;;;;4.70;1.60;;;;;;;17.53;52.38;98720.55;105088;1295;545408;-81
2024/04/05 19:38:14;;;;;;;5.50;1.80;;;;;;;17.52;52.41;98727.91;105208;1294;545232;-82
2024/04/05 19:42:00;;;;;;;5.40;1.40;;;;;;;17.53;52.54;98718.48;104946;1296;545530;-80
2024/04/05 19:46:16;;;;;;;4.50;1.50;;;;;;;17.55;52.52;98716.16;105157;1297;553007;-80
2024/04/05 19:59:46;;;;;;;2.90;1.50;;;;;;;17.75;52.65;98701.55;105121;1285;554785;-83
2024/04/05 20:02:37;;;;;;;8.60;1.90;;;;;;;17.85;52.79;98699.77;105794;1292;545683;-80